Terminal Aerodrome Forecast
Issued by NWS

Home | Current Version | Previous Version | Text Only | Print | Product List | Glossary On
Versions: 1 2 3 4 5 6 7 8 9 10 11 12 13 14 15 16 17 18 19 20 21 22 23
000
FTUS42 TJSJ 190956 AAA
TAFJSJ
TAF AMD
TJSJ 190956Z 1910/2006 07011KT P6SM -RA SCT020 BKN040
     FM191300 07015G25KT P6SM FEW030 SCT060
     FM192300 09010KT P6SM VCSH SCT030 BKN080=

USA.gov is the U.S. government's official web portal to all federal, state and local government web resources and services.